Time;durP1;ratioP1;P1;durP2;ratioP2;P2;SDS_P1;SDS_P2;PMS_P1;PMS_P2;Temp;Humidity;BMP_temperature;BMP_pressure;BME280_temperature;BME280_humidity;BME280_pressure;Samples;Min_cycle;Max_cycle;Signal;HPM_P1;HPM_P2
2022/10/04 00:01:55;;;;;;;;;;;23.60;52.70;;;;;;1588322;74;1671;-68
2022/10/04 00:04:04;;;;;;;;;;;23.60;52.70;;;;;;1580805;74;1708;-67
2022/10/04 00:06:06;;;;;;;;;;;23.70;52.80;;;;;;1595654;74;797;-70
2022/10/04 00:08:19;;;;;;;;;;;23.70;52.70;;;;;;1589313;74;1162;-67
2022/10/04 00:10:22;;;;;;;;;;;23.80;52.60;;;;;;1594169;74;1932;-68
2022/10/04 00:12:28;;;;;;;;;;;23.70;52.70;;;;;;1567489;74;789;-68
2022/10/04 00:14:34;;;;;;;;;;;23.70;52.80;;;;;;1585378;74;1919;-68
2022/10/04 00:16:37;;;;;;;;;;;23.70;52.80;;;;;;1589787;73;942;-65
2022/10/04 00:18:40;;;;;;;;;;;23.60;52.80;;;;;;1578846;71;225129;-59
2022/10/04 00:20:49;;;;;;;;;;;23.70;52.80;;;;;;1552604;74;751;-59
2022/10/04 00:23:09;;;;;;;;;;;23.70;52.60;;;;;;1527487;76;683;-60
2022/10/04 00:25:13;;;;;;;;;;;23.80;52.60;;;;;;1566213;74;1208;-59
2022/10/04 00:27:22;;;;;;;;;;;23.70;52.60;;;;;;1561377;75;664;-60
2022/10/04 00:29:28;;;;;;;;;;;23.70;52.60;;;;;;1575957;75;1572;-59
2022/10/04 00:31:30;;;;;;;;;;;23.60;52.70;;;;;;1564913;75;701;-59
2022/10/04 00:33:36;;;;;;;;;;;23.60;52.80;;;;;;1570620;75;1948;-59
2022/10/04 00:35:39;;;;;;;;;;;23.60;52.90;;;;;;1572363;75;1127;-59
2022/10/04 00:37:59;;;;;;;;;;;23.60;52.90;;;;;;1567359;75;1643;-59
2022/10/04 00:40:06;;;;;;;;;;;23.60;53.00;;;;;;1568627;75;757;-60
2022/10/04 00:42:18;;;;;;;;;;;23.50;53.10;;;;;;1567775;75;1020;-59
2022/10/04 00:44:22;;;;;;;;;;;23.50;53.20;;;;;;1558797;75;1710;-58
2022/10/04 00:46:24;;;;;;;;;;;23.40;53.10;;;;;;1569633;75;1704;-59
2022/10/04 00:48:45;;;;;;;;;;;23.50;53.30;;;;;;1575046;75;625;-60
2022/10/04 00:50:52;;;;;;;;;;;23.50;53.40;;;;;;1571082;75;709;-58
2022/10/04 00:52:54;;;;;;;;;;;23.50;53.40;;;;;;1575845;75;1809;-59
2022/10/04 00:54:57;;;;;;;;;;;23.40;53.40;;;;;;1570216;75;1943;-60
2022/10/04 00:57:03;;;;;;;;;;;23.40;53.40;;;;;;1563500;75;1557;-60
2022/10/04 00:59:09;;;;;;;;;;;23.50;53.60;;;;;;1574011;74;763;-60
2022/10/04 01:01:11;;;;;;;;;;;23.60;53.70;;;;;;1561511;75;1132;-59
2022/10/04 01:03:14;;;;;;;;;;;23.60;53.60;;;;;;1580746;75;655;-59
2022/10/04 01:05:18;;;;;;;;;;;23.50;53.60;;;;;;1568048;75;1149;-59
2022/10/04 01:07:21;;;;;;;;;;;23.60;53.40;;;;;;1570006;74;836;-58
2022/10/04 01:09:23;;;;;;;;;;;23.50;53.40;;;;;;1570677;75;667;-59
2022/10/04 01:11:26;;;;;;;;;;;23.60;53.20;;;;;;1566902;75;1556;-58
2022/10/04 01:13:32;;;;;;;;;;;23.60;53.10;;;;;;1568142;75;1946;-60
2022/10/04 01:15:36;;;;;;;;;;;23.60;53.10;;;;;;1563684;75;1150;-60
2022/10/04 01:17:38;;;;;;;;;;;23.60;53.00;;;;;;1567757;75;719;-59
2022/10/04 01:19:42;;;;;;;;;;;23.70;53.10;;;;;;1581936;75;786;-60
2022/10/04 01:21:44;;;;;;;;;;;23.70;53.10;;;;;;1561444;74;1755;-61
2022/10/04 01:23:49;;;;;;;;;;;23.70;53.10;;;;;;1551988;75;1352;-59
2022/10/04 01:25:51;;;;;;;;;;;23.70;53.00;;;;;;1575640;74;1628;-59
2022/10/04 01:27:53;;;;;;;;;;;23.90;52.80;;;;;;1568233;75;747;-58
2022/10/04 01:29:55;;;;;;;;;;;23.80;52.60;;;;;;1562278;74;752;-59
2022/10/04 01:31:57;;;;;;;;;;;23.90;52.60;;;;;;1573789;75;894;-59
2022/10/04 01:34:00;;;;;;;;;;;23.90;52.40;;;;;;1574738;75;1933;-57
2022/10/04 01:36:01;;;;;;;;;;;23.90;52.30;;;;;;1582650;74;1167;-59
2022/10/04 01:38:06;;;;;;;;;;;23.90;52.30;;;;;;1571064;74;692;-55
2022/10/04 01:40:07;;;;;;;;;;;23.90;52.30;;;;;;1568209;74;1657;-58
2022/10/04 01:42:10;;;;;;;;;;;23.90;52.20;;;;;;1576610;74;755;-59
2022/10/04 01:44:14;;;;;;;;;;;23.90;52.40;;;;;;1584723;75;614;-57
2022/10/04 01:46:17;;;;;;;;;;;23.90;52.40;;;;;;1579491;74;1906;-59
2022/10/04 01:48:21;;;;;;;;;;;23.90;52.40;;;;;;1578678;75;734;-60
2022/10/04 01:50:24;;;;;;;;;;;23.90;52.40;;;;;;1569425;75;1784;-58
2022/10/04 01:52:36;;;;;;;;;;;23.80;52.30;;;;;;1580394;75;750;-59
2022/10/04 01:54:40;;;;;;;;;;;23.80;52.40;;;;;;1575519;74;1941;-59
2022/10/04 01:56:45;;;;;;;;;;;23.80;52.50;;;;;;1569583;75;687;-59
2022/10/04 01:58:57;;;;;;;;;;;23.80;52.40;;;;;;1578934;75;720;-57
2022/10/04 02:01:03;;;;;;;;;;;23.80;52.40;;;;;;1569684;75;1645;-60
2022/10/04 02:03:07;;;;;;;;;;;23.70;52.50;;;;;;1571640;75;2098;-60
2022/10/04 02:05:10;;;;;;;;;;;23.70;52.50;;;;;;1571188;75;2007;-60
2022/10/04 02:07:13;;;;;;;;;;;23.80;52.50;;;;;;1575827;75;1566;-57
2022/10/04 02:09:16;;;;;;;;;;;23.70;52.50;;;;;;1578272;75;738;-56
2022/10/04 02:11:23;;;;;;;;;;;23.70;52.60;;;;;;1572168;74;740;-55
2022/10/04 02:13:23;;;;;;;;;;;23.70;52.70;;;;;;1572055;75;1247;-56
2022/10/04 02:15:25;;;;;;;;;;;23.70;52.80;;;;;;1568229;75;1914;-59
2022/10/04 02:17:31;;;;;;;;;;;23.60;52.80;;;;;;1576210;75;737;-60
2022/10/04 02:19:34;;;;;;;;;;;23.60;52.80;;;;;;1561084;75;799;-57
2022/10/04 02:21:36;;;;;;;;;;;23.60;52.70;;;;;;1559641;75;1637;-60
2022/10/04 02:23:38;;;;;;;;;;;23.60;52.80;;;;;;1563536;75;1019;-58
2022/10/04 02:25:40;;;;;;;;;;;23.70;52.90;;;;;;1569388;75;1162;-59
2022/10/04 02:27:42;;;;;;;;;;;23.70;53.00;;;;;;1573620;75;710;-57
2022/10/04 02:29:43;;;;;;;;;;;23.80;52.90;;;;;;1562495;75;715;-54
2022/10/04 02:34:06;;;;;;;;;;;23.70;52.80;;;;;;1557218;75;1909;-55
2022/10/04 02:36:08;;;;;;;;;;;23.70;52.80;;;;;;1568289;75;1557;-57
2022/10/04 02:38:12;;;;;;;;;;;23.70;52.80;;;;;;1557496;75;774;-55
2022/10/04 02:40:16;;;;;;;;;;;23.70;52.80;;;;;;1560065;75;747;-59
2022/10/04 02:42:36;;;;;;;;;;;23.70;52.90;;;;;;1561715;75;712;-57
2022/10/04 02:44:48;;;;;;;;;;;23.80;52.80;;;;;;1568799;75;1200;-55
2022/10/04 02:46:52;;;;;;;;;;;23.70;53.10;;;;;;1565743;75;1741;-55
2022/10/04 02:48:58;;;;;;;;;;;23.70;53.10;;;;;;1552735;75;735;-58
2022/10/04 02:51:04;;;;;;;;;;;23.80;53.00;;;;;;1560255;75;809;-56
2022/10/04 02:53:19;;;;;;;;;;;23.80;53.10;;;;;;1555461;75;1858;-59
2022/10/04 02:55:22;;;;;;;;;;;23.70;53.10;;;;;;1562970;75;1943;-59
2022/10/04 02:57:24;;;;;;;;;;;23.80;52.90;;;;;;1563719;75;707;-55
2022/10/04 02:59:26;;;;;;;;;;;23.80;52.70;;;;;;1563856;75;749;-58
2022/10/04 03:01:28;;;;;;;;;;;23.90;52.60;;;;;;1569658;75;855;-59
2022/10/04 03:03:33;;;;;;;;;;;23.90;52.50;;;;;;1574640;75;1541;-55
2022/10/04 03:05:35;;;;;;;;;;;23.90;52.30;;;;;;1558101;75;1815;-59
2022/10/04 03:07:37;;;;;;;;;;;24.00;52.30;;;;;;1565441;75;726;-57
2022/10/04 03:09:39;;;;;;;;;;;24.00;52.20;;;;;;1567036;75;739;-57
2022/10/04 03:11:41;;;;;;;;;;;24.00;52.10;;;;;;1560149;75;734;-57
2022/10/04 03:13:44;;;;;;;;;;;23.90;52.10;;;;;;1560465;75;721;-59
2022/10/04 03:15:47;;;;;;;;;;;24.00;52.10;;;;;;1552593;75;1942;-59
2022/10/04 03:17:49;;;;;;;;;;;23.90;52.10;;;;;;1565316;75;1544;-59
2022/10/04 03:19:50;;;;;;;;;;;23.90;52.20;;;;;;1565585;75;791;-55
2022/10/04 03:21:54;;;;;;;;;;;24.00;52.10;;;;;;1560835;75;692;-59
2022/10/04 03:23:55;;;;;;;;;;;24.00;52.00;;;;;;1563777;75;777;-59
2022/10/04 03:26:05;;;;;;;;;;;24.00;52.10;;;;;;1563403;75;1167;-58
2022/10/04 03:28:07;;;;;;;;;;;24.00;52.00;;;;;;1567156;75;706;-60
2022/10/04 03:30:10;;;;;;;;;;;24.00;52.00;;;;;;1560595;75;649;-59
2022/10/04 03:32:13;;;;;;;;;;;24.00;51.90;;;;;;1564257;75;1591;-60
2022/10/04 03:34:20;;;;;;;;;;;24.00;52.00;;;;;;1553558;75;1954;-57
2022/10/04 03:36:22;;;;;;;;;;;24.00;52.10;;;;;;1565574;75;1828;-60
2022/10/04 03:38:25;;;;;;;;;;;23.90;52.20;;;;;;1560694;75;634;-58
2022/10/04 03:40:28;;;;;;;;;;;24.00;52.50;;;;;;1561470;75;701;-60
2022/10/04 03:42:31;;;;;;;;;;;23.90;52.40;;;;;;1554024;75;774;-57
2022/10/04 03:44:33;;;;;;;;;;;23.90;52.30;;;;;;1565437;75;1185;-58
2022/10/04 03:46:36;;;;;;;;;;;23.90;52.20;;;;;;1537414;77;1606;-59
2022/10/04 03:48:40;;;;;;;;;;;24.00;52.20;;;;;;1561233;75;724;-56
2022/10/04 03:50:45;;;;;;;;;;;23.90;52.30;;;;;;1562272;75;1873;-59
2022/10/04 03:52:49;;;;;;;;;;;23.90;52.30;;;;;;1554160;75;686;-58
2022/10/04 03:54:51;;;;;;;;;;;23.80;52.30;;;;;;1551541;75;1926;-58
2022/10/04 03:56:53;;;;;;;;;;;23.90;52.60;;;;;;1566011;75;771;-58
2022/10/04 03:58:55;;;;;;;;;;;23.70;52.60;;;;;;1550417;75;799;-58
2022/10/04 04:01:11;;;;;;;;;;;23.80;52.60;;;;;;1558057;75;1592;-58
2022/10/04 04:03:16;;;;;;;;;;;23.80;52.60;;;;;;1566087;75;827;-59
2022/10/04 04:05:23;;;;;;;;;;;23.80;52.60;;;;;;1556517;75;1133;-59
2022/10/04 04:07:29;;;;;;;;;;;23.70;52.70;;;;;;1562519;75;697;-59
2022/10/04 04:09:49;;;;;;;;;;;23.70;52.80;;;;;;1563836;75;1807;-59
2022/10/04 04:11:51;;;;;;;;;;;23.70;52.80;;;;;;1559502;75;777;-58
2022/10/04 04:13:58;;;;;;;;;;;23.80;52.70;;;;;;1569869;75;1556;-59
2022/10/04 04:16:00;;;;;;;;;;;23.80;52.70;;;;;;1554560;75;1942;-59
2022/10/04 04:18:05;;;;;;;;;;;23.70;52.80;;;;;;1555397;75;758;-59
2022/10/04 04:20:12;;;;;;;;;;;23.80;52.80;;;;;;1558067;75;778;-57
2022/10/04 04:22:15;;;;;;;;;;;23.70;52.90;;;;;;1560568;75;1137;-58
2022/10/04 04:24:21;;;;;;;;;;;23.70;52.90;;;;;;1567157;75;699;-56
2022/10/04 04:26:26;;;;;;;;;;;23.70;52.80;;;;;;1557532;75;1792;-59
2022/10/04 04:28:30;;;;;;;;;;;23.80;52.70;;;;;;1560753;75;1542;-59
2022/10/04 04:30:31;;;;;;;;;;;23.60;52.80;;;;;;1561509;75;741;-59
2022/10/04 04:32:35;;;;;;;;;;;23.70;52.80;;;;;;1557328;75;757;-58
2022/10/04 04:34:53;;;;;;;;;;;23.70;52.90;;;;;;1563897;75;1940;-55
2022/10/04 04:36:57;;;;;;;;;;;23.70;52.90;;;;;;1558044;75;727;-59
2022/10/04 04:41:30;;;;;;;;;;;23.60;53.00;;;;;;1550019;75;1701;-59
2022/10/04 04:43:32;;;;;;;;;;;23.60;53.10;;;;;;1548482;75;716;-59
2022/10/04 04:45:34;;;;;;;;;;;23.60;53.00;;;;;;1535312;75;1172;-58
2022/10/04 04:47:40;;;;;;;;;;;23.60;53.10;;;;;;1525990;76;764;-57
2022/10/04 04:49:42;;;;;;;;;;;23.70;53.00;;;;;;1552101;75;1387;-56
2022/10/04 04:51:49;;;;;;;;;;;23.80;52.90;;;;;;1565559;75;783;-58
2022/10/04 04:53:51;;;;;;;;;;;23.80;52.90;;;;;;1566832;75;850;-57
2022/10/04 04:56:00;;;;;;;;;;;23.80;52.80;;;;;;1560813;75;1957;-58
2022/10/04 04:58:02;;;;;;;;;;;23.80;52.70;;;;;;1552234;75;809;-59
2022/10/04 05:00:04;;;;;;;;;;;23.80;52.80;;;;;;1565645;75;768;-58
2022/10/04 05:02:08;;;;;;;;;;;23.90;52.90;;;;;;1564131;75;749;-57
2022/10/04 05:04:11;;;;;;;;;;;23.80;53.00;;;;;;1560333;75;1586;-59
2022/10/04 05:06:24;;;;;;;;;;;23.90;52.70;;;;;;1556502;75;1081;-60
2022/10/04 05:08:30;;;;;;;;;;;23.90;52.60;;;;;;1564259;75;1079;-60
2022/10/04 05:10:32;;;;;;;;;;;23.90;52.60;;;;;;1559045;75;1485;-60
2022/10/04 05:12:34;;;;;;;;;;;23.80;52.70;;;;;;1559205;75;722;-57
2022/10/04 05:14:40;;;;;;;;;;;23.70;52.90;;;;;;1559406;75;1940;-60
2022/10/04 05:16:44;;;;;;;;;;;23.70;53.10;;;;;;1567359;75;718;-58
2022/10/04 05:18:46;;;;;;;;;;;23.60;53.10;;;;;;1566907;75;739;-59
2022/10/04 05:20:51;;;;;;;;;;;23.60;53.20;;;;;;1569137;75;810;-58
2022/10/04 05:22:53;;;;;;;;;;;23.60;53.20;;;;;;1568173;75;782;-55
2022/10/04 05:24:57;;;;;;;;;;;23.70;53.10;;;;;;1558291;75;1510;-56
2022/10/04 05:27:01;;;;;;;;;;;23.80;52.80;;;;;;1555367;75;817;-58
2022/10/04 05:29:04;;;;;;;;;;;23.80;52.80;;;;;;1559332;75;713;-60
2022/10/04 05:31:14;;;;;;;;;;;23.80;52.70;;;;;;1559038;75;1880;-59
2022/10/04 05:33:21;;;;;;;;;;;23.80;52.70;;;;;;1564882;75;1576;-60
2022/10/04 05:35:23;;;;;;;;;;;23.90;52.60;;;;;;1561416;75;1949;-58
2022/10/04 05:37:26;;;;;;;;;;;23.90;52.50;;;;;;1563688;75;790;-60
2022/10/04 05:39:46;;;;;;;;;;;23.90;52.30;;;;;;1556453;75;1601;-56
2022/10/04 05:41:54;;;;;;;;;;;23.80;52.10;;;;;;1562460;75;759;-56
2022/10/04 05:43:55;;;;;;;;;;;23.70;52.20;;;;;;1552935;75;723;-58
2022/10/04 05:46:06;;;;;;;;;;;23.70;52.30;;;;;;1562336;75;1173;-59
2022/10/04 05:48:08;;;;;;;;;;;23.70;52.30;;;;;;1547693;75;1537;-60
2022/10/04 05:50:12;;;;;;;;;;;23.60;52.10;;;;;;1564636;75;831;-57
2022/10/04 05:52:15;;;;;;;;;;;23.60;52.10;;;;;;1555624;75;1797;-58
2022/10/04 05:54:19;;;;;;;;;;;23.40;52.10;;;;;;1554287;75;1795;-56
2022/10/04 05:56:25;;;;;;;;;;;23.60;52.30;;;;;;1556830;75;1951;-57
2022/10/04 05:58:38;;;;;;;;;;;23.50;52.20;;;;;;1569229;75;1933;-55
2022/10/04 06:00:51;;;;;;;;;;;23.50;52.30;;;;;;1569229;75;679;-57
2022/10/04 06:02:54;;;;;;;;;;;23.40;52.30;;;;;;1561134;75;695;-59
2022/10/04 06:05:01;;;;;;;;;;;23.30;52.40;;;;;;1558887;75;1169;-56
2022/10/04 06:07:20;;;;;;;;;;;23.30;52.40;;;;;;1556296;75;1314;-57
2022/10/04 06:09:30;;;;;;;;;;;23.20;52.50;;;;;;1560626;75;1894;-59
2022/10/04 06:11:50;;;;;;;;;;;23.10;52.60;;;;;;1562297;75;660;-58
2022/10/04 06:13:53;;;;;;;;;;;23.20;52.70;;;;;;1564328;75;774;-59
2022/10/04 06:15:57;;;;;;;;;;;23.20;52.80;;;;;;1570337;75;1954;-57
2022/10/04 06:18:00;;;;;;;;;;;23.10;52.90;;;;;;1557754;70;235475;-68
2022/10/04 06:20:13;;;;;;;;;;;23.10;52.90;;;;;;1613090;72;1571;-70
2022/10/04 06:22:18;;;;;;;;;;;23.10;53.00;;;;;;1610908;72;1706;-68
2022/10/04 06:24:21;;;;;;;;;;;23.10;53.10;;;;;;1622604;72;738;-68
2022/10/04 06:26:25;;;;;;;;;;;23.10;53.10;;;;;;1622037;72;867;-68
2022/10/04 06:28:40;;;;;;;;;;;23.00;52.90;;;;;;1596753;72;1923;-68
2022/10/04 06:30:52;;;;;;;;;;;23.00;53.10;;;;;;1598206;74;604;-70
2022/10/04 06:33:12;;;;;;;;;;;23.00;53.10;;;;;;1589347;74;1427;-66
2022/10/04 06:35:22;;;;;;;;;;;23.00;53.10;;;;;;1582450;74;1915;-68
2022/10/04 06:37:43;;;;;;;;;;;23.00;53.10;;;;;;1581457;74;727;-66
2022/10/04 06:39:56;;;;;;;;;;;23.00;53.10;;;;;;1583364;74;2121;-65
2022/10/04 06:42:15;;;;;;;;;;;23.00;53.10;;;;;;1583652;74;723;-65
2022/10/04 06:44:30;;;;;;;;;;;23.00;53.10;;;;;;1592126;74;1876;-65
2022/10/04 06:46:49;;;;;;;;;;;23.00;53.10;;;;;;1588123;74;987;-65
2022/10/04 06:48:55;;;;;;;;;;;23.00;53.10;;;;;;1573034;74;1397;-61
2022/10/04 06:50:59;;;;;;;;;;;23.00;53.00;;;;;;1578874;73;1659;-65
2022/10/04 06:53:05;;;;;;;;;;;23.00;53.00;;;;;;1593502;74;798;-65
2022/10/04 06:55:09;;;;;;;;;;;23.10;53.10;;;;;;1590511;74;1937;-64
2022/10/04 06:57:22;;;;;;;;;;;23.00;52.90;;;;;;1582619;74;789;-65
2022/10/04 06:59:28;;;;;;;;;;;23.00;52.90;;;;;;1585211;74;1111;-65
2022/10/04 07:01:32;;;;;;;;;;;23.00;52.90;;;;;;1584228;74;711;-66
2022/10/04 07:03:38;;;;;;;;;;;23.10;53.00;;;;;;1590301;74;1795;-64
2022/10/04 07:05:58;;;;;;;;;;;23.00;52.90;;;;;;1587805;74;744;-66
2022/10/04 07:08:07;;;;;;;;;;;23.00;52.80;;;;;;1595523;72;1134;-65
2022/10/04 07:10:11;;;;;;;;;;;23.00;52.80;;;;;;1589397;74;656;-65
2022/10/04 07:12:17;;;;;;;;;;;23.10;52.90;;;;;;1584875;74;965;-66
2022/10/04 07:14:18;;;;;;;;;;;23.10;52.90;;;;;;1590297;74;1773;-66
2022/10/04 07:16:24;;;;;;;;;;;23.00;52.70;;;;;;1584492;74;1937;-65
2022/10/04 07:18:37;;;;;;;;;;;23.00;52.60;;;;;;1594542;73;1142;-68
2022/10/04 07:20:38;;;;;;;;;;;23.00;52.60;;;;;;1595241;74;1896;-66
2022/10/04 07:22:41;;;;;;;;;;;23.00;52.60;;;;;;1595484;74;798;-66
2022/10/04 07:24:57;;;;;;;;;;;23.10;52.60;;;;;;1583147;74;724;-64
2022/10/04 07:26:59;;;;;;;;;;;23.00;52.50;;;;;;1594005;74;808;-66
2022/10/04 07:29:19;;;;;;;;;;;23.10;52.60;;;;;;1560221;75;1147;-67
2022/10/04 07:31:24;;;;;;;;;;;23.00;52.50;;;;;;1583088;74;1388;-66
2022/10/04 07:33:27;;;;;;;;;;;23.10;52.60;;;;;;1574804;74;752;-66
2022/10/04 07:35:31;;;;;;;;;;;23.10;52.60;;;;;;1583892;74;1919;-65
2022/10/04 07:37:34;;;;;;;;;;;23.00;52.40;;;;;;1574984;74;716;-65
2022/10/04 07:39:54;;;;;;;;;;;23.00;52.40;;;;;;1586455;74;1077;-65
2022/10/04 07:42:09;;;;;;;;;;;23.00;52.30;;;;;;1574008;74;703;-65
2022/10/04 07:44:15;;;;;;;;;;;23.00;52.30;;;;;;1512209;74;1079;-65
2022/10/04 07:46:19;;;;;;;;;;;23.00;52.40;;;;;;1580249;74;1421;-66
2022/10/04 07:48:24;;;;;;;;;;;23.00;52.40;;;;;;1591144;73;1793;-65
2022/10/04 07:50:28;;;;;;;;;;;23.00;52.40;;;;;;1590122;74;765;-67
2022/10/04 07:52:48;;;;;;;;;;;23.00;52.30;;;;;;1581249;74;746;-64
2022/10/04 07:55:01;;;;;;;;;;;23.00;52.30;;;;;;1590624;74;738;-63
2022/10/04 07:57:13;;;;;;;;;;;23.00;52.30;;;;;;1576837;74;1926;-65
2022/10/04 07:59:33;;;;;;;;;;;23.10;52.50;;;;;;1586181;73;1591;-65
2022/10/04 08:01:39;;;;;;;;;;;23.00;52.30;;;;;;1573088;74;1426;-65
2022/10/04 08:03:43;;;;;;;;;;;23.00;52.30;;;;;;1582839;74;1007;-66
2022/10/04 08:05:49;;;;;;;;;;;23.00;52.30;;;;;;1589813;74;1955;-65
2022/10/04 08:07:53;;;;;;;;;;;23.00;52.20;;;;;;1582305;73;1133;-64
2022/10/04 08:10:15;;;;;;;;;;;23.00;52.20;;;;;;1572352;74;1491;-66
2022/10/04 08:12:18;;;;;;;;;;;23.00;52.20;;;;;;1570338;74;1798;-65
2022/10/04 08:14:31;;;;;;;;;;;23.00;52.20;;;;;;1574896;74;1718;-66
2022/10/04 08:16:38;;;;;;;;;;;23.00;52.10;;;;;;1587534;74;1931;-63
2022/10/04 08:18:45;;;;;;;;;;;23.10;52.30;;;;;;1585624;74;1144;-65
2022/10/04 08:20:47;;;;;;;;;;;23.00;52.10;;;;;;1586501;74;820;-66
2022/10/04 08:22:57;;;;;;;;;;;23.10;52.30;;;;;;1587556;74;846;-65
2022/10/04 08:25:06;;;;;;;;;;;23.00;52.20;;;;;;1573317;74;1930;-65
2022/10/04 08:27:24;;;;;;;;;;;23.10;52.20;;;;;;1578857;73;1573;-66
2022/10/04 08:29:46;;;;;;;;;;;23.00;52.10;;;;;;1591974;73;1892;-67
2022/10/04 08:32:03;;;;;;;;;;;23.10;52.20;;;;;;1592073;74;702;-66
2022/10/04 08:34:09;;;;;;;;;;;23.00;52.10;;;;;;1586188;74;1606;-66
2022/10/04 08:36:13;;;;;;;;;;;23.00;52.10;;;;;;1592171;74;1927;-65
2022/10/04 08:38:25;;;;;;;;;;;23.10;52.10;;;;;;1587507;74;1864;-66
2022/10/04 08:40:42;;;;;;;;;;;23.10;52.10;;;;;;1584726;74;771;-65
2022/10/04 08:43:04;;;;;;;;;;;23.10;52.10;;;;;;1591572;74;711;-65
2022/10/04 08:45:08;;;;;;;;;;;23.00;51.90;;;;;;1582019;74;2062;-65
2022/10/04 08:47:23;;;;;;;;;;;23.10;52.10;;;;;;1584733;74;797;-65
2022/10/04 08:49:42;;;;;;;;;;;23.00;51.90;;;;;;1581276;74;1892;-65
2022/10/04 08:51:55;;;;;;;;;;;23.00;51.90;;;;;;1593351;74;1900;-65
2022/10/04 08:54:15;;;;;;;;;;;23.00;51.90;;;;;;1585568;74;731;-65
2022/10/04 08:56:35;;;;;;;;;;;23.00;51.90;;;;;;1583007;74;1933;-65
2022/10/04 08:58:38;;;;;;;;;;;23.00;51.90;;;;;;1586756;73;1086;-66
2022/10/04 09:00:47;;;;;;;;;;;23.00;51.90;;;;;;1590863;74;1903;-68
2022/10/04 09:02:49;;;;;;;;;;;23.00;51.90;;;;;;1591102;74;1599;-64
2022/10/04 09:05:02;;;;;;;;;;;23.00;51.90;;;;;;1585430;74;1827;-64
2022/10/04 09:07:05;;;;;;;;;;;23.00;51.90;;;;;;1578543;74;1877;-66
2022/10/04 09:09:09;;;;;;;;;;;23.00;51.80;;;;;;1585412;73;1903;-66
2022/10/04 09:11:12;;;;;;;;;;;23.00;51.80;;;;;;1581572;74;1996;-67
2022/10/04 09:13:32;;;;;;;;;;;23.00;51.80;;;;;;1586197;74;785;-66
2022/10/04 09:15:52;;;;;;;;;;;23.00;51.80;;;;;;1547431;75;764;-67
2022/10/04 09:18:14;;;;;;;;;;;23.00;51.70;;;;;;1575557;74;1170;-65
2022/10/04 09:20:21;;;;;;;;;;;23.00;51.70;;;;;;1562023;74;754;-66
2022/10/04 09:22:41;;;;;;;;;;;23.00;51.70;;;;;;1567624;74;711;-67
2022/10/04 09:25:01;;;;;;;;;;;23.00;51.70;;;;;;1576744;74;1748;-66
2022/10/04 09:27:14;;;;;;;;;;;23.00;51.70;;;;;;1571422;74;708;-66
2022/10/04 09:29:17;;;;;;;;;;;23.00;51.70;;;;;;1570008;74;1938;-65
2022/10/04 09:31:24;;;;;;;;;;;23.00;51.70;;;;;;1571090;74;718;-66
2022/10/04 09:33:27;;;;;;;;;;;23.00;51.70;;;;;;1562592;74;1433;-66
2022/10/04 09:35:47;;;;;;;;;;;23.00;51.70;;;;;;1566480;75;1882;-67
2022/10/04 09:37:56;;;;;;;;;;;23.00;51.60;;;;;;1576913;74;1439;-67
2022/10/04 09:40:16;;;;;;;;;;;23.00;51.60;;;;;;1568326;74;1916;-67
2022/10/04 09:42:21;;;;;;;;;;;23.00;51.50;;;;;;1581588;74;780;-66
2022/10/04 09:44:33;;;;;;;;;;;23.00;51.60;;;;;;1572943;74;746;-67
2022/10/04 09:46:40;;;;;;;;;;;23.00;51.60;;;;;;1568397;74;1946;-66
2022/10/04 09:48:43;;;;;;;;;;;23.00;51.50;;;;;;1576194;74;1989;-66
2022/10/04 09:51:06;;;;;;;;;;;23.00;51.50;;;;;;1586614;74;1938;-66
2022/10/04 09:53:08;;;;;;;;;;;23.10;51.60;;;;;;1570660;74;1663;-67
2022/10/04 09:55:24;;;;;;;;;;;23.00;51.50;;;;;;1568785;74;603;-68
2022/10/04 09:57:29;;;;;;;;;;;23.00;51.50;;;;;;1562198;74;2327;-65
2022/10/04 09:59:35;;;;;;;;;;;23.00;51.50;;;;;;1576893;74;1108;-66
2022/10/04 10:01:50;;;;;;;;;;;23.00;51.50;;;;;;1573095;74;1598;-66
2022/10/04 10:04:10;;;;;;;;;;;23.00;51.50;;;;;;1571530;74;747;-66
2022/10/04 10:06:23;;;;;;;;;;;23.00;51.50;;;;;;1573802;74;1432;-66
2022/10/04 10:08:27;;;;;;;;;;;23.00;51.50;;;;;;1574935;74;1135;-66
2022/10/04 10:15:37;;;;;;;;;;;23.00;51.50;;;;;;1568501;74;1642;-67
2022/10/04 10:17:51;;;;;;;;;;;23.00;51.50;;;;;;1523802;76;1932;-67
2022/10/04 10:20:04;;;;;;;;;;;23.00;51.50;;;;;;1542979;75;1566;-66
2022/10/04 10:22:27;;;;;;;;;;;22.90;51.50;;;;;;1544098;75;879;-66
2022/10/04 10:24:34;;;;;;;;;;;23.00;51.50;;;;;;1548678;75;722;-66
2022/10/04 10:26:52;;;;;;;;;;;23.00;51.50;;;;;;1548465;75;957;-66
2022/10/04 10:29:02;;;;;;;;;;;23.00;51.50;;;;;;1576350;74;1189;-65
2022/10/04 10:31:08;;;;;;;;;;;22.90;51.40;;;;;;1585924;74;759;-65
2022/10/04 10:33:23;;;;;;;;;;;23.00;51.50;;;;;;1580725;74;1569;-66
2022/10/04 10:35:27;;;;;;;;;;;23.00;51.50;;;;;;1582254;74;703;-66
2022/10/04 10:37:33;;;;;;;;;;;22.90;51.40;;;;;;1564229;74;1934;-65
2022/10/04 10:39:37;;;;;;;;;;;23.00;51.50;;;;;;1545154;75;1952;-65
2022/10/04 10:41:41;;;;;;;;;;;23.00;51.40;;;;;;1592397;74;1844;-66
2022/10/04 10:43:45;;;;;;;;;;;23.00;51.40;;;;;;1590874;74;776;-67
2022/10/04 10:45:51;;;;;;;;;;;22.90;51.40;;;;;;1586138;74;903;-65
2022/10/04 10:47:55;;;;;;;;;;;22.90;51.40;;;;;;1589331;74;1596;-66
2022/10/04 10:49:58;;;;;;;;;;;23.00;51.40;;;;;;1577085;74;717;-67
2022/10/04 10:52:05;;;;;;;;;;;23.00;51.40;;;;;;1584387;74;748;-65
2022/10/04 10:54:24;;;;;;;;;;;23.00;51.40;;;;;;1588460;74;1612;-65
2022/10/04 10:56:44;;;;;;;;;;;23.00;51.30;;;;;;1576864;74;1911;-66
2022/10/04 10:59:04;;;;;;;;;;;23.00;51.40;;;;;;1586056;73;1144;-66
2022/10/04 11:01:09;;;;;;;;;;;23.00;51.40;;;;;;1577647;74;751;-66
2022/10/04 11:03:29;;;;;;;;;;;23.00;51.40;;;;;;1564513;74;1712;-66
2022/10/04 11:05:35;;;;;;;;;;;23.00;51.40;;;;;;1586910;74;738;-66
2022/10/04 11:07:57;;;;;;;;;;;23.00;51.40;;;;;;1592837;74;1506;-67
2022/10/04 11:10:01;;;;;;;;;;;23.00;51.30;;;;;;1592483;74;673;-67
2022/10/04 11:12:04;;;;;;;;;;;23.00;51.30;;;;;;1575130;74;1852;-67
2022/10/04 11:14:14;;;;;;;;;;;23.00;51.30;;;;;;1591172;74;2160;-66
2022/10/04 11:16:33;;;;;;;;;;;23.00;51.30;;;;;;1586154;74;1933;-67
2022/10/04 11:18:38;;;;;;;;;;;23.00;51.30;;;;;;1592197;74;1125;-66
2022/10/04 11:20:54;;;;;;;;;;;23.10;51.40;;;;;;1595049;74;767;-70
2022/10/04 11:23:15;;;;;;;;;;;23.00;51.30;;;;;;1597277;74;771;-66
2022/10/04 11:25:33;;;;;;;;;;;23.10;51.30;;;;;;1579240;74;675;-73
2022/10/04 11:27:36;;;;;;;;;;;23.00;51.20;;;;;;1594194;74;1610;-66
2022/10/04 11:29:56;;;;;;;;;;;23.00;51.20;;;;;;1582412;73;1606;-67
2022/10/04 11:32:03;;;;;;;;;;;23.10;51.30;;;;;;1581639;74;826;-66
2022/10/04 11:34:16;;;;;;;;;;;23.00;51.20;;;;;;1588933;74;693;-66
2022/10/04 11:36:17;;;;;;;;;;;23.10;51.30;;;;;;1586316;74;1858;-66
2022/10/04 11:38:30;;;;;;;;;;;23.10;51.30;;;;;;1589858;73;1941;-67
2022/10/04 11:40:48;;;;;;;;;;;23.00;51.10;;;;;;1587565;74;1701;-66
2022/10/04 11:42:55;;;;;;;;;;;23.10;51.30;;;;;;1596185;72;745;-67
2022/10/04 11:45:02;;;;;;;;;;;23.10;51.20;;;;;;1579243;74;1632;-67
2022/10/04 11:47:07;;;;;;;;;;;23.10;51.20;;;;;;1584541;74;800;-65
2022/10/04 11:49:17;;;;;;;;;;;23.10;51.10;;;;;;1593770;73;1146;-66
2022/10/04 11:51:20;;;;;;;;;;;23.00;51.00;;;;;;1590213;74;1576;-66
2022/10/04 11:53:27;;;;;;;;;;;23.10;51.10;;;;;;1593083;74;2041;-66
2022/10/04 11:55:52;;;;;;;;;;;23.10;51.00;;;;;;1589625;74;879;-66
2022/10/04 11:57:57;;;;;;;;;;;23.10;51.00;;;;;;1587255;73;1930;-66
2022/10/04 12:00:06;;;;;;;;;;;23.10;51.00;;;;;;1584225;74;1344;-66
2022/10/04 12:02:09;;;;;;;;;;;23.10;51.00;;;;;;1588253;74;784;-67
2022/10/04 12:04:20;;;;;;;;;;;23.10;51.00;;;;;;1579834;74;1632;-66
2022/10/04 12:06:23;;;;;;;;;;;23.10;51.00;;;;;;1542603;75;1911;-66
2022/10/04 12:08:39;;;;;;;;;;;23.10;51.00;;;;;;1561326;75;1097;-68
2022/10/04 12:10:41;;;;;;;;;;;23.10;51.00;;;;;;1580461;75;1892;-68
2022/10/04 12:12:59;;;;;;;;;;;23.10;51.00;;;;;;1574238;74;1559;-65
2022/10/04 12:15:21;;;;;;;;;;;23.10;50.90;;;;;;1566002;74;1426;-68
2022/10/04 12:17:26;;;;;;;;;;;23.10;51.00;;;;;;1567819;74;1920;-68
2022/10/04 12:19:46;;;;;;;;;;;23.10;51.00;;;;;;1566153;73;223667;-60
2022/10/04 12:21:50;;;;;;;;;;;23.10;50.90;;;;;;1580858;73;746;-60
2022/10/04 12:23:52;;;;;;;;;;;23.10;50.90;;;;;;1597574;73;738;-60
2022/10/04 12:26:06;;;;;;;;;;;23.10;50.90;;;;;;1584810;74;1510;-60
2022/10/04 12:28:11;;;;;;;;;;;23.10;50.90;;;;;;1576343;74;2079;-60
2022/10/04 12:30:19;;;;;;;;;;;23.10;50.90;;;;;;1585713;74;2166;-60
2022/10/04 12:32:26;;;;;;;;;;;23.10;50.90;;;;;;1581190;74;1638;-60
2022/10/04 12:34:41;;;;;;;;;;;23.10;50.90;;;;;;1582063;74;1137;-60
2022/10/04 12:36:45;;;;;;;;;;;23.00;50.80;;;;;;1586700;73;1915;-60
2022/10/04 12:38:55;;;;;;;;;;;23.10;50.90;;;;;;1580896;74;1829;-58
2022/10/04 12:41:01;;;;;;;;;;;23.10;51.00;;;;;;1569925;74;1718;-60
2022/10/04 12:43:05;;;;;;;;;;;23.10;50.90;;;;;;1587462;74;668;-58
2022/10/04 12:45:18;;;;;;;;;;;23.00;50.70;;;;;;1578239;74;2025;-60
2022/10/04 12:47:34;;;;;;;;;;;23.00;50.70;;;;;;1583892;74;1025;-59
2022/10/04 12:49:55;;;;;;;;;;;23.00;50.70;;;;;;1585785;74;1872;-58